Time;durP1;ratioP1;P1;durP2;ratioP2;P2;SDS_P1;SDS_P2;PMS_P1;PMS_P2;Temp;Humidity;BMP_temperature;BMP_pressure;BME280_temperature;BME280_humidity;BME280_pressure;Samples;Min_cycle;Max_cycle;Signal;HPM_P1;HPM_P2
2021/11/03 00:01:54;;;;;;;16.92;7.25;;;;;;;;;;5038732;28;20057;-59
2021/11/03 00:04:22;;;;;;;20.77;7.93;;;;;;;;;;5043639;28;20111;-59
2021/11/03 00:06:48;;;;;;;17.00;7.47;;;;;;;;;;5038969;28;20030;-59
2021/11/03 00:09:15;;;;;;;14.05;6.07;;;;;;;;;;5044413;28;20069;-58
2021/11/03 00:11:41;;;;;;;14.45;6.28;;;;;;;;;;5039228;28;20052;-59
2021/11/03 00:14:10;;;;;;;12.80;5.82;;;;;;;;;;5043615;28;20467;-59
2021/11/03 00:16:39;;;;;;;11.82;5.88;;;;;;;;;;5039254;28;20045;-59
2021/11/03 00:19:06;;;;;;;11.85;5.95;;;;;;;;;;5043301;28;20041;-59
2021/11/03 00:21:32;;;;;;;11.82;6.13;;;;;;;;;;5024034;28;20029;-59
2021/11/03 00:24:02;;;;;;;16.58;7.03;;;;;;;;;;5045016;28;20041;-59
2021/11/03 00:26:28;;;;;;;12.50;6.20;;;;;;;;;;5042405;28;20026;-59
2021/11/03 00:28:56;;;;;;;11.95;6.20;;;;;;;;;;5047746;28;20049;-60
2021/11/03 00:31:24;;;;;;;13.27;6.10;;;;;;;;;;5040833;28;20234;-58
2021/11/03 00:33:52;;;;;;;12.90;5.93;;;;;;;;;;5042578;28;20347;-59
2021/11/03 00:36:19;;;;;;;13.75;6.93;;;;;;;;;;5041418;28;20042;-58
2021/11/03 00:38:45;;;;;;;11.82;6.25;;;;;;;;;;5044627;28;20048;-58
2021/11/03 00:41:12;;;;;;;16.77;7.20;;;;;;;;;;5046770;28;20041;-59
2021/11/03 00:43:38;;;;;;;13.60;6.85;;;;;;;;;;5037004;28;20114;-59
2021/11/03 00:46:05;;;;;;;16.55;6.50;;;;;;;;;;5042503;28;20041;-59
2021/11/03 00:48:33;;;;;;;15.13;6.85;;;;;;;;;;5036476;28;20052;-59
2021/11/03 00:51:00;;;;;;;16.67;7.17;;;;;;;;;;5031401;28;20053;-59
2021/11/03 00:53:27;;;;;;;18.48;7.28;;;;;;;;;;5016984;28;20138;-59
2021/11/03 00:55:53;;;;;;;14.75;7.35;;;;;;;;;;5021745;28;20034;-58
2021/11/03 00:58:20;;;;;;;16.48;7.35;;;;;;;;;;5022441;28;20054;-58
2021/11/03 01:00:46;;;;;;;19.90;7.90;;;;;;;;;;5035308;28;20055;-58
2021/11/03 01:03:13;;;;;;;17.83;7.55;;;;;;;;;;5023426;28;20472;-59
2021/11/03 01:05:41;;;;;;;19.73;7.28;;;;;;;;;;5032849;28;20045;-58
2021/11/03 01:08:08;;;;;;;15.73;7.13;;;;;;;;;;5021564;28;20188;-60
2021/11/03 01:10:34;;;;;;;17.20;7.72;;;;;;;;;;5019343;28;20061;-58
2021/11/03 01:13:01;;;;;;;16.60;7.78;;;;;;;;;;5016410;28;20038;-59
2021/11/03 01:15:28;;;;;;;19.00;8.38;;;;;;;;;;5002229;28;20101;-58
2021/11/03 01:17:56;;;;;;;18.08;7.18;;;;;;;;;;5002294;28;20161;-59
2021/11/03 01:20:23;;;;;;;18.55;8.02;;;;;;;;;;5000621;28;20046;-60
2021/11/03 01:22:51;;;;;;;17.35;8.13;;;;;;;;;;5009659;28;20042;-58
2021/11/03 01:25:18;;;;;;;15.20;7.03;;;;;;;;;;5018468;28;20123;-59
2021/11/03 01:27:44;;;;;;;17.38;7.53;;;;;;;;;;5022383;28;20038;-59
2021/11/03 01:30:12;;;;;;;18.30;7.93;;;;;;;;;;5004263;28;20049;-59
2021/11/03 01:32:39;;;;;;;16.97;7.57;;;;;;;;;;5002017;28;20038;-59
2021/11/03 01:35:07;;;;;;;17.52;7.82;;;;;;;;;;5010826;28;20307;-58
2021/11/03 01:37:33;;;;;;;21.10;8.07;;;;;;;;;;5023880;28;20045;-59
2021/11/03 01:40:01;;;;;;;19.13;8.55;;;;;;;;;;5026053;28;20042;-59
2021/11/03 01:42:28;;;;;;;19.58;8.20;;;;;;;;;;5023816;28;20049;-59
2021/11/03 01:44:55;;;;;;;16.23;8.05;;;;;;;;;;5031987;28;20041;-59
2021/11/03 01:47:38;;;;;;;15.10;7.28;;;;;;;;;;5023673;28;20033;-59
2021/11/03 01:50:06;;;;;;;16.50;7.50;;;;;;;;;;5009644;28;20042;-59
2021/11/03 01:52:33;;;;;;;19.15;7.97;;;;;;;;;;5021723;28;20041;-60
2021/11/03 01:55:01;;;;;;;18.90;8.10;;;;;;;;;;5014441;28;20037;-60
2021/11/03 01:57:30;;;;;;;19.70;8.68;;;;;;;;;;5005171;28;20041;-60
2021/11/03 01:59:58;;;;;;;22.13;8.93;;;;;;;;;;4997663;28;20107;-58
2021/11/03 02:02:24;;;;;;;20.58;8.20;;;;;;;;;;5017529;28;20042;-58
2021/11/03 02:04:51;;;;;;;19.75;8.57;;;;;;;;;;4998975;28;20042;-59
2021/11/03 02:07:19;;;;;;;21.08;8.27;;;;;;;;;;5002396;28;20053;-59
2021/11/03 02:09:45;;;;;;;17.20;7.65;;;;;;;;;;5002301;28;20046;-59
2021/11/03 02:12:18;;;;;;;19.42;8.60;;;;;;;;;;5001493;28;20042;-59
2021/11/03 02:14:45;;;;;;;18.23;7.97;;;;;;;;;;5020348;28;20042;-59
2021/11/03 02:17:11;;;;;;;19.48;7.72;;;;;;;;;;5035501;28;20058;-59
2021/11/03 02:19:37;;;;;;;16.50;8.30;;;;;;;;;;5018316;28;20492;-58
2021/11/03 02:22:06;;;;;;;20.08;7.90;;;;;;;;;;5003729;28;20062;-59
2021/11/03 02:24:36;;;;;;;17.30;7.55;;;;;;;;;;5002174;28;20493;-59
2021/11/03 02:27:05;;;;;;;17.42;7.45;;;;;;;;;;4998874;28;20038;-59
2021/11/03 02:29:32;;;;;;;17.67;7.70;;;;;;;;;;5008836;28;20045;-59
2021/11/03 02:32:12;;;;;;;17.30;7.72;;;;;;;;;;5016185;28;20594;-58
2021/11/03 02:34:39;;;;;;;14.38;6.57;;;;;;;;;;5020315;28;20034;-58
2021/11/03 02:37:20;;;;;;;17.48;6.93;;;;;;;;;;5016139;28;20033;-59
2021/11/03 02:39:50;;;;;;;13.32;6.15;;;;;;;;;;5023036;28;20054;-58
2021/11/03 02:42:18;;;;;;;15.25;7.07;;;;;;;;;;5018092;28;20084;-58
2021/11/03 02:44:47;;;;;;;12.52;5.53;;;;;;;;;;5057230;28;20041;-58
2021/11/03 02:47:14;;;;;;;12.82;6.57;;;;;;;;;;5041235;28;20047;-59
2021/11/03 02:49:41;;;;;;;14.77;5.85;;;;;;;;;;5045358;28;20044;-58
2021/11/03 02:52:11;;;;;;;14.02;6.82;;;;;;;;;;5039342;28;20042;-58
2021/11/03 02:54:38;;;;;;;16.17;7.07;;;;;;;;;;5024912;28;20044;-59
2021/11/03 02:57:07;;;;;;;14.60;6.95;;;;;;;;;;5020904;28;20037;-59
2021/11/03 02:59:35;;;;;;;13.38;6.47;;;;;;;;;;5023152;28;20049;-58
2021/11/03 03:02:04;;;;;;;16.13;7.40;;;;;;;;;;5022497;28;20041;-58
2021/11/03 03:04:32;;;;;;;15.75;7.38;;;;;;;;;;5041691;28;20049;-59
2021/11/03 03:06:58;;;;;;;20.98;8.18;;;;;;;;;;5024189;28;20041;-59
2021/11/03 03:09:25;;;;;;;15.73;7.68;;;;;;;;;;5057021;28;20048;-59
2021/11/03 03:11:55;;;;;;;16.13;7.57;;;;;;;;;;5046236;28;20048;-59
2021/11/03 03:14:23;;;;;;;14.52;7.03;;;;;;;;;;5046160;28;20080;-59
2021/11/03 03:16:51;;;;;;;15.82;7.60;;;;;;;;;;5043468;28;20041;-60
2021/11/03 03:19:17;;;;;;;17.80;6.90;;;;;;;;;;5040309;28;20041;-60
2021/11/03 03:21:44;;;;;;;12.85;6.40;;;;;;;;;;5042414;28;20091;-59
2021/11/03 03:24:15;;;;;;;13.93;6.90;;;;;;;;;;5030520;28;20030;-60
2021/11/03 03:26:42;;;;;;;13.98;6.45;;;;;;;;;;5026428;28;20049;-58
2021/11/03 03:29:09;;;;;;;12.68;6.07;;;;;;;;;;5008060;28;20057;-58
2021/11/03 03:31:36;;;;;;;11.05;5.72;;;;;;;;;;5019808;28;20120;-59
2021/11/03 03:34:06;;;;;;;9.52;5.00;;;;;;;;;;5023281;28;20041;-59
2021/11/03 03:36:32;;;;;;;9.77;4.93;;;;;;;;;;5040659;28;20041;-59
2021/11/03 03:38:59;;;;;;;10.35;4.30;;;;;;;;;;5035355;28;20049;-58
2021/11/03 03:41:27;;;;;;;10.02;4.43;;;;;;;;;;5038724;28;20138;-59
2021/11/03 03:43:53;;;;;;;8.63;3.92;;;;;;;;;;5034636;28;20037;-59
2021/11/03 03:46:21;;;;;;;14.73;4.65;;;;;;;;;;5039727;28;20056;-59
2021/11/03 03:48:47;;;;;;;8.93;4.30;;;;;;;;;;5038177;28;20060;-60
2021/11/03 03:51:15;;;;;;;8.70;4.15;;;;;;;;;;5037598;28;20056;-59
2021/11/03 03:53:42;;;;;;;8.10;4.05;;;;;;;;;;5042170;28;20044;-58
2021/11/03 03:56:09;;;;;;;9.38;4.00;;;;;;;;;;5025108;28;20371;-59
2021/11/03 03:58:36;;;;;;;8.85;4.40;;;;;;;;;;5027350;28;20041;-58
2021/11/03 04:01:03;;;;;;;8.02;3.90;;;;;;;;;;5035815;28;20057;-59
2021/11/03 04:03:30;;;;;;;9.15;4.32;;;;;;;;;;5039642;28;20044;-58
2021/11/03 04:05:56;;;;;;;12.50;4.45;;;;;;;;;;5023560;28;20046;-58
2021/11/03 04:08:25;;;;;;;10.27;4.20;;;;;;;;;;5022679;28;20042;-58
2021/11/03 04:10:52;;;;;;;8.73;4.07;;;;;;;;;;5019535;28;20033;-58
2021/11/03 04:13:20;;;;;;;7.63;3.97;;;;;;;;;;5064720;28;20036;-58
2021/11/03 04:15:47;;;;;;;8.80;4.28;;;;;;;;;;5073030;28;20056;-59
2021/11/03 04:18:14;;;;;;;9.82;3.83;;;;;;;;;;5046374;28;20494;-58
2021/11/03 04:20:40;;;;;;;9.02;4.28;;;;;;;;;;5045203;28;20166;-59
2021/11/03 04:23:07;;;;;;;9.80;4.65;;;;;;;;;;5047213;28;20088;-59
2021/11/03 04:25:35;;;;;;;9.95;4.20;;;;;;;;;;5043498;28;20059;-60
2021/11/03 04:28:02;;;;;;;8.65;4.18;;;;;;;;;;5046515;28;20125;-59
2021/11/03 04:30:30;;;;;;;9.02;4.22;;;;;;;;;;5041724;28;20048;-59
2021/11/03 04:32:57;;;;;;;7.57;3.92;;;;;;;;;;5025945;28;20053;-59
2021/11/03 04:35:23;;;;;;;9.52;3.95;;;;;;;;;;5027529;28;20033;-59
2021/11/03 04:37:50;;;;;;;9.50;4.57;;;;;;;;;;5041231;28;20062;-59
2021/11/03 04:40:17;;;;;;;8.63;4.15;;;;;;;;;;5046292;28;20037;-59
2021/11/03 04:42:45;;;;;;;11.02;5.05;;;;;;;;;;5041635;28;20040;-58
2021/11/03 04:45:12;;;;;;;14.23;5.13;;;;;;;;;;5045060;28;20041;-59
2021/11/03 04:47:40;;;;;;;9.40;4.97;;;;;;;;;;5041893;28;20052;-60
2021/11/03 04:50:07;;;;;;;10.80;5.10;;;;;;;;;;5047066;28;20048;-59
2021/11/03 04:52:40;;;;;;;11.95;5.32;;;;;;;;;;5034166;28;20044;-60
2021/11/03 04:55:07;;;;;;;12.93;5.10;;;;;;;;;;5045023;28;20052;-59
2021/11/03 04:57:33;;;;;;;14.13;5.88;;;;;;;;;;5023223;28;20033;-58
2021/11/03 05:00:04;;;;;;;15.57;6.05;;;;;;;;;;5025005;28;20126;-59
2021/11/03 05:02:30;;;;;;;20.05;6.45;;;;;;;;;;5029156;28;20035;-59
2021/11/03 05:04:57;;;;;;;17.30;6.78;;;;;;;;;;5045119;28;20047;-59
2021/11/03 05:07:23;;;;;;;16.50;6.13;;;;;;;;;;5042495;28;20123;-59
2021/11/03 05:09:50;;;;;;;17.75;6.22;;;;;;;;;;5045958;28;20064;-59
2021/11/03 05:12:16;;;;;;;14.52;5.70;;;;;;;;;;5047786;28;20117;-59
2021/11/03 05:14:43;;;;;;;18.90;6.30;;;;;;;;;;5045812;28;20033;-59
2021/11/03 05:17:11;;;;;;;15.18;6.38;;;;;;;;;;5045594;28;20040;-58
2021/11/03 05:19:37;;;;;;;14.63;5.60;;;;;;;;;;5040999;28;20588;-59
2021/11/03 05:22:06;;;;;;;13.20;5.35;;;;;;;;;;5045497;28;20028;-59
2021/11/03 05:24:33;;;;;;;13.02;5.57;;;;;;;;;;5038448;28;20044;-58
2021/11/03 05:27:00;;;;;;;10.65;4.65;;;;;;;;;;5045147;28;20033;-58
2021/11/03 05:29:26;;;;;;;11.65;5.22;;;;;;;;;;5026719;28;20049;-59
2021/11/03 05:31:53;;;;;;;9.73;4.93;;;;;;;;;;5025909;28;20491;-58
2021/11/03 05:34:21;;;;;;;9.98;4.65;;;;;;;;;;5022703;28;20086;-59
2021/11/03 05:36:48;;;;;;;9.20;4.55;;;;;;;;;;5024309;28;20065;-58
2021/11/03 05:39:16;;;;;;;9.82;4.38;;;;;;;;;;5022056;28;20049;-59
2021/11/03 05:41:42;;;;;;;8.77;4.40;;;;;;;;;;5025396;28;20045;-58
2021/11/03 05:44:10;;;;;;;9.10;3.72;;;;;;;;;;5018701;28;20131;-58
2021/11/03 05:46:38;;;;;;;7.68;3.70;;;;;;;;;;5024905;28;20496;-59
2021/11/03 05:49:09;;;;;;;7.38;3.63;;;;;;;;;;5018912;28;20041;-58
2021/11/03 05:51:37;;;;;;;10.50;4.25;;;;;;;;;;5021970;28;20076;-59
2021/11/03 05:54:05;;;;;;;6.75;3.70;;;;;;;;;;5022944;28;20046;-59
2021/11/03 05:56:31;;;;;;;8.68;4.57;;;;;;;;;;5041646;28;20195;-58
2021/11/03 05:58:59;;;;;;;8.88;3.97;;;;;;;;;;5036247;28;20033;-58
2021/11/03 06:01:25;;;;;;;7.47;3.83;;;;;;;;;;5021198;28;20134;-59
2021/11/03 06:03:52;;;;;;;8.05;3.53;;;;;;;;;;5020877;28;20049;-59
2021/11/03 06:06:19;;;;;;;9.55;3.72;;;;;;;;;;5034840;28;20073;-59
2021/11/03 06:08:47;;;;;;;8.57;4.18;;;;;;;;;;5043390;28;20049;-59
2021/11/03 06:11:18;;;;;;;8.15;3.83;;;;;;;;;;5038558;28;20041;-59
2021/11/03 06:13:46;;;;;;;7.75;3.90;;;;;;;;;;5040674;28;20086;-59
2021/11/03 06:16:12;;;;;;;8.85;4.10;;;;;;;;;;5033770;28;20033;-60
2021/11/03 06:18:39;;;;;;;8.85;4.03;;;;;;;;;;5042970;28;20049;-60
2021/11/03 06:21:05;;;;;;;8.77;4.00;;;;;;;;;;5041073;28;20052;-60
2021/11/03 06:23:32;;;;;;;8.73;3.85;;;;;;;;;;5042293;28;20107;-60
2021/11/03 06:25:59;;;;;;;9.52;3.92;;;;;;;;;;5036813;28;20068;-59
2021/11/03 06:28:26;;;;;;;10.10;4.15;;;;;;;;;;5041174;28;20081;-59
2021/11/03 06:30:53;;;;;;;7.63;3.70;;;;;;;;;;5036898;28;20033;-59
2021/11/03 06:33:19;;;;;;;8.38;3.47;;;;;;;;;;5042176;28;20119;-58
2021/11/03 06:35:48;;;;;;;8.27;4.28;;;;;;;;;;5037550;28;20265;-59
2021/11/03 06:38:15;;;;;;;7.57;3.90;;;;;;;;;;5039002;28;20145;-59
2021/11/03 06:40:42;;;;;;;9.35;3.97;;;;;;;;;;5037844;28;20117;-58
2021/11/03 06:43:10;;;;;;;7.05;3.50;;;;;;;;;;5040195;28;20041;-58
2021/11/03 06:45:37;;;;;;;7.95;3.90;;;;;;;;;;5040638;28;20045;-59
2021/11/03 06:48:04;;;;;;;7.20;3.45;;;;;;;;;;5036428;28;20049;-58
2021/11/03 06:50:32;;;;;;;7.53;3.08;;;;;;;;;;5040853;28;20055;-58
2021/11/03 06:53:00;;;;;;;8.73;4.03;;;;;;;;;;5036211;28;20056;-59
2021/11/03 06:55:27;;;;;;;6.93;3.53;;;;;;;;;;5031950;28;20077;-59
2021/11/03 06:57:56;;;;;;;10.32;3.97;;;;;;;;;;5023084;28;20094;-59
2021/11/03 07:00:24;;;;;;;;;;;;;;;;;;5021257;28;20078;-58
2021/11/03 07:02:52;;;;;;;6.93;3.42;;;;;;;;;;5015869;28;19936;-58
2021/11/03 07:05:19;;;;;;;8.37;4.10;;;;;;;;;;5021239;28;20045;-59
2021/11/03 07:07:48;;;;;;;8.00;4.00;;;;;;;;;;5017867;28;20275;-59
2021/11/03 07:10:14;;;;;;;;;;;;;;;;;;5023354;28;20048;-59
2021/11/03 07:12:41;;;;;;;6.95;3.72;;;;;;;;;;5028878;28;19925;-58
2021/11/03 07:15:08;;;;;;;7.68;3.78;;;;;;;;;;5040334;28;20041;-58
2021/11/03 07:17:35;;;;;;;10.50;4.07;;;;;;;;;;5032724;28;20052;-59
2021/11/03 07:20:03;;;;;;;8.90;4.07;;;;;;;;;;5033206;28;20041;-59
2021/11/03 07:22:29;;;;;;;8.73;4.00;;;;;;;;;;5036305;28;20026;-58
2021/11/03 07:24:56;;;;;;;9.77;4.13;;;;;;;;;;5040683;28;20155;-58
2021/11/03 07:27:22;;;;;;;7.22;3.60;;;;;;;;;;5036162;28;20057;-59
2021/11/03 07:29:49;;;;;;;6.68;3.53;;;;;;;;;;5020486;28;20062;-58
2021/11/03 07:32:17;;;;;;;8.52;4.03;;;;;;;;;;5021683;28;20105;-59
2021/11/03 07:34:43;;;;;;;8.65;4.30;;;;;;;;;;5019649;28;20053;-59
2021/11/03 07:37:11;;;;;;;11.95;4.82;;;;;;;;;;5022331;28;20037;-60
2021/11/03 07:39:37;;;;;;;8.13;4.25;;;;;;;;;;5031701;28;20061;-59
2021/11/03 07:42:04;;;;;;;8.45;4.50;;;;;;;;;;5042137;28;20041;-58
2021/11/03 07:44:31;;;;;;;10.38;4.38;;;;;;;;;;5039081;28;20053;-58
2021/11/03 07:46:57;;;;;;;9.45;4.43;;;;;;;;;;5045264;28;20037;-59
2021/11/03 07:49:24;;;;;;;9.05;4.18;;;;;;;;;;5042247;28;20033;-60
2021/11/03 07:51:53;;;;;;;9.45;4.28;;;;;;;;;;5043294;28;20037;-58
2021/11/03 07:54:21;;;;;;;9.70;4.40;;;;;;;;;;5040960;28;20036;-59
2021/11/03 07:56:48;;;;;;;8.50;4.30;;;;;;;;;;5043246;28;20041;-58
2021/11/03 07:59:15;;;;;;;10.25;4.63;;;;;;;;;;5039569;28;20136;-60
2021/11/03 08:01:41;;;;;;;10.07;4.97;;;;;;;;;;5042675;28;20052;-60
2021/11/03 08:04:08;;;;;;;10.45;5.35;;;;;;;;;;5037545;28;20110;-58
2021/11/03 08:06:35;;;;;;;10.95;5.20;;;;;;;;;;5042566;28;20047;-59
2021/11/03 08:09:05;;;;;;;10.95;4.80;;;;;;;;;;5037959;28;20118;-59
2021/11/03 08:11:36;;;;;;;11.20;5.20;;;;;;;;;;5026564;28;20048;-60
2021/11/03 08:14:04;;;;;;;9.98;5.15;;;;;;;;;;5042042;28;20033;-59
2021/11/03 08:16:35;;;;;;;11.35;5.65;;;;;;;;;;5018157;28;20062;-58
2021/11/03 08:19:03;;;;;;;9.45;5.03;;;;;;;;;;5023353;28;20045;-59
2021/11/03 08:21:30;;;;;;;9.85;4.90;;;;;;;;;;5019284;28;20045;-59
2021/11/03 08:23:58;;;;;;;12.02;5.78;;;;;;;;;;5038077;28;20543;-58
2021/11/03 08:26:24;;;;;;;11.15;5.72;;;;;;;;;;5049586;28;20143;-59
2021/11/03 08:28:52;;;;;;;10.90;5.20;;;;;;;;;;5058893;28;20032;-58
2021/11/03 08:31:19;;;;;;;14.60;5.47;;;;;;;;;;5031191;28;20041;-59
2021/11/03 08:33:46;;;;;;;11.10;5.43;;;;;;;;;;5021571;28;20135;-59
2021/11/03 08:36:14;;;;;;;10.43;5.35;;;;;;;;;;5018674;28;20057;-58
2021/11/03 08:38:40;;;;;;;9.85;5.18;;;;;;;;;;5021339;28;20042;-59
2021/11/03 08:41:07;;;;;;;11.82;5.28;;;;;;;;;;5021205;28;20046;-59
2021/11/03 08:43:44;;;;;;;11.68;5.85;;;;;;;;;;5022161;28;20038;-62
2021/11/03 08:46:12;;;;;;;11.50;5.70;;;;;;;;;;5018692;28;20053;-59
2021/11/03 08:48:39;;;;;;;12.52;5.25;;;;;;;;;;5023007;28;20041;-59
2021/11/03 08:51:05;;;;;;;11.43;5.45;;;;;;;;;;5022237;28;20045;-59
2021/11/03 08:53:32;;;;;;;11.85;5.38;;;;;;;;;;5041922;28;20034;-58
2021/11/03 08:55:58;;;;;;;11.75;5.65;;;;;;;;;;5038846;28;20037;-58
2021/11/03 08:58:26;;;;;;;11.80;4.95;;;;;;;;;;5043471;28;20037;-59
2021/11/03 09:00:54;;;;;;;11.00;5.60;;;;;;;;;;5042800;28;20061;-59
2021/11/03 09:03:22;;;;;;;10.73;5.75;;;;;;;;;;5038607;28;20049;-59
2021/11/03 09:05:49;;;;;;;10.38;5.32;;;;;;;;;;5043781;28;20049;-60
2021/11/03 09:08:16;;;;;;;14.13;5.68;;;;;;;;;;5022032;28;20041;-59
2021/11/03 09:10:45;;;;;;;12.68;5.80;;;;;;;;;;5023952;28;20046;-59
2021/11/03 09:13:13;;;;;;;11.07;5.50;;;;;;;;;;5023004;28;20146;-59
2021/11/03 09:15:39;;;;;;;11.63;5.72;;;;;;;;;;5023557;28;20034;-58
2021/11/03 09:18:06;;;;;;;11.60;5.97;;;;;;;;;;5033977;28;20041;-59
2021/11/03 09:20:34;;;;;;;13.82;6.32;;;;;;;;;;5043971;28;20053;-59
2021/11/03 09:23:00;;;;;;;12.67;6.40;;;;;;;;;;5037987;28;20056;-59
2021/11/03 09:25:27;;;;;;;13.25;6.03;;;;;;;;;;5042398;28;20052;-58
2021/11/03 09:27:53;;;;;;;12.52;6.20;;;;;;;;;;5036689;28;20111;-59
2021/11/03 09:30:23;;;;;;;14.60;6.95;;;;;;;;;;5041649;28;20128;-59
2021/11/03 09:32:53;;;;;;;14.35;6.50;;;;;;;;;;5033524;28;20053;-59
2021/11/03 09:35:21;;;;;;;13.77;6.35;;;;;;;;;;5021638;28;20164;-59
2021/11/03 09:37:49;;;;;;;12.75;6.28;;;;;;;;;;5022714;28;20180;-58
2021/11/03 09:40:20;;;;;;;16.13;6.73;;;;;;;;;;5041695;28;20037;-59
2021/11/03 09:42:47;;;;;;;13.82;6.75;;;;;;;;;;5036762;28;20041;-58
2021/11/03 09:45:19;;;;;;;12.75;6.55;;;;;;;;;;5023778;28;20037;-58
2021/11/03 09:47:56;;;;;;;14.52;6.97;;;;;;;;;;5023494;28;20041;-58
2021/11/03 09:50:25;;;;;;;16.45;7.45;;;;;;;;;;5024233;28;20044;-59
2021/11/03 09:52:56;;;;;;;14.05;7.03;;;;;;;;;;5024940;28;20037;-59
2021/11/03 09:55:26;;;;;;;17.88;7.63;;;;;;;;;;5041438;28;20033;-59
2021/11/03 09:57:57;;;;;;;11.90;6.25;;;;;;;;;;5044479;28;20052;-58
2021/11/03 10:00:27;;;;;;;14.85;7.20;;;;;;;;;;5040360;28;20041;-59
2021/11/03 10:03:03;;;;;;;16.15;8.18;;;;;;;;;;5062875;28;20067;-58
2021/11/03 10:05:31;;;;;;;14.68;7.07;;;;;;;;;;5021816;28;20224;-59
2021/11/03 10:08:00;;;;;;;15.45;7.18;;;;;;;;;;5024258;28;20045;-59
2021/11/03 10:10:28;;;;;;;;;;;;;;;;;;5036935;28;20028;-59
2021/11/03 10:12:55;;;;;;;14.95;6.82;;;;;;;;;;5062750;28;20400;-59
2021/11/03 10:15:22;;;;;;;16.73;7.75;;;;;;;;;;5046994;28;20048;-59
2021/11/03 10:18:06;;;;;;;16.10;7.40;;;;;;;;;;5045013;28;20037;-59
2021/11/03 10:20:39;;;;;;;17.90;7.88;;;;;;;;;;5044113;28;20072;-59
2021/11/03 10:23:09;;;;;;;19.35;8.30;;;;;;;;;;5042944;28;20052;-59
2021/11/03 10:25:36;;;;;;;15.23;7.60;;;;;;;;;;5030897;28;20126;-59
2021/11/03 10:28:05;;;;;;;14.23;6.90;;;;;;;;;;5025136;28;20042;-58
2021/11/03 10:30:34;;;;;;;22.58;7.50;;;;;;;;;;5030322;28;20048;-59
2021/11/03 10:33:09;;;;;;;16.67;7.05;;;;;;;;;;5044661;28;20130;-60
2021/11/03 10:35:38;;;;;;;14.00;6.90;;;;;;;;;;5033838;28;20034;-59
2021/11/03 10:38:11;;;;;;;11.35;5.85;;;;;;;;;;5025781;28;20046;-59
2021/11/03 10:40:43;;;;;;;13.32;6.85;;;;;;;;;;5029479;28;20045;-60
2021/11/03 10:43:22;;;;;;;12.85;6.57;;;;;;;;;;5046647;28;20036;-60
2021/11/03 10:45:55;;;;;;;14.73;7.50;;;;;;;;;;5043053;28;20096;-58
2021/11/03 10:48:23;;;;;;;16.90;7.53;;;;;;;;;;5062112;28;20061;-59
2021/11/03 10:50:59;;;;;;;17.23;7.03;;;;;;;;;;5041052;28;20080;-59
2021/11/03 10:53:29;;;;;;;16.83;7.38;;;;;;;;;;5044454;28;20040;-58
2021/11/03 10:56:01;;;;;;;13.68;6.72;;;;;;;;;;5040489;28;20067;-58
2021/11/03 10:58:28;;;;;;;16.02;7.30;;;;;;;;;;5062700;28;20033;-59
2021/11/03 11:00:57;;;;;;;16.15;6.97;;;;;;;;;;5037130;28;20120;-59
2021/11/03 11:03:26;;;;;;;14.30;6.47;;;;;;;;;;5024077;28;20045;-58
2021/11/03 11:05:56;;;;;;;17.75;8.20;;;;;;;;;;5021284;28;20045;-59
2021/11/03 11:08:24;;;;;;;20.75;8.43;;;;;;;;;;5022592;28;20160;-58
2021/11/03 11:10:56;;;;;;;23.92;9.63;;;;;;;;;;5022667;28;20095;-58
2021/11/03 11:13:26;;;;;;;22.60;8.25;;;;;;;;;;5039288;28;20069;-59
2021/11/03 11:15:58;;;;;;;16.35;7.47;;;;;;;;;;5043799;28;20048;-60
2021/11/03 11:18:43;;;;;;;17.50;8.48;;;;;;;;;;5025023;28;20058;-59
2021/11/03 11:21:14;;;;;;;19.63;8.40;;;;;;;;;;5025230;28;20092;-59
2021/11/03 11:23:42;;;;;;;20.23;9.20;;;;;;;;;;5059896;28;20080;-59
2021/11/03 11:26:09;;;;;;;;;;;;;;;;;;5047840;28;20126;-58
2021/11/03 11:28:39;;;;;;;18.73;8.45;;;;;;;;;;5070395;28;20306;-59
2021/11/03 11:31:10;;;;;;;24.52;10.90;;;;;;;;;;5066993;28;20040;-59
2021/11/03 11:33:40;;;;;;;22.20;10.20;;;;;;;;;;5064253;28;20037;-59
2021/11/03 11:36:16;;;;;;;25.38;8.88;;;;;;;;;;5047718;28;20049;-59
2021/11/03 11:38:53;;;;;;;25.33;9.88;;;;;;;;;;5028234;28;20041;-59
2021/11/03 11:41:21;;;;;;;22.38;10.20;;;;;;;;;;5027689;28;20045;-59
2021/11/03 11:43:51;;;;;;;29.92;11.13;;;;;;;;;;5032166;28;20045;-59
2021/11/03 11:46:20;;;;;;;21.50;10.23;;;;;;;;;;5043764;28;20091;-59
2021/11/03 11:48:48;;;;;;;27.38;11.45;;;;;;;;;;5028739;28;20045;-59
2021/11/03 11:51:15;;;;;;;;;;;;;;;;;;5023685;28;20046;-58
2021/11/03 11:53:58;;;;;;;21.67;9.38;;;;;;;;;;5027262;28;19936;-59
2021/11/03 11:56:26;;;;;;;25.50;10.95;;;;;;;;;;5043583;28;20132;-60
2021/11/03 11:58:55;;;;;;;26.08;11.10;;;;;;;;;;5039464;28;20088;-59
2021/11/03 12:01:30;;;;;;;23.25;10.93;;;;;;;;;;5044350;28;20041;-58
2021/11/03 12:04:27;;;;;;;27.83;11.40;;;;;;;;;;5031907;28;20053;-59
2021/11/03 12:07:15;;;;;;;25.25;10.88;;;;;;;;;;4945680;28;20113;-60
2021/11/03 12:09:43;;;;;;;22.95;10.73;;;;;;;;;;5017986;28;20078;-60
2021/11/03 12:12:21;;;;;;;27.17;11.80;;;;;;;;;;5034167;28;20045;-60
2021/11/03 12:14:50;;;;;;;23.10;10.32;;;;;;;;;;5030612;28;20041;-59
2021/11/03 12:17:16;;;;;;;;;;;;;;;;;;5031974;28;20076;-59
2021/11/03 12:19:49;;;;;;;26.45;12.23;;;;;;;;;;5037320;28;19935;-59
2021/11/03 12:22:35;;;;;;;27.65;12.70;;;;;;;;;;5041981;28;20091;-59
2021/11/03 12:25:32;;;;;;;28.70;13.18;;;;;;;;;;5028411;28;20045;-59
2021/11/03 12:28:20;;;;;;;26.80;12.35;;;;;;;;;;5043260;28;20080;-60
2021/11/03 12:31:05;;;;;;;26.85;11.27;;;;;;;;;;5019664;28;20033;-58
2021/11/03 12:33:51;;;;;;;29.42;13.27;;;;;;;;;;5042410;28;20082;-59
2021/11/03 12:36:22;;;;;;;26.55;12.82;;;;;;;;;;5040470;28;20045;-60
2021/11/03 12:38:51;;;;;;;24.65;11.70;;;;;;;;;;5042242;28;20040;-60
2021/11/03 12:41:22;;;;;;;29.35;12.85;;;;;;;;;;5039671;28;20041;-59
2021/11/03 12:43:51;;;;;;;31.52;14.35;;;;;;;;;;5051204;28;20045;-59
2021/11/03 12:46:19;;;;;;;27.65;12.93;;;;;;;;;;5042189;28;20044;-61
2021/11/03 12:48:47;;;;;;;32.17;12.50;;;;;;;;;;5046284;28;20064;-59
2021/11/03 12:51:14;;;;;;;30.25;12.95;;;;;;;;;;5059486;28;20149;-59
2021/11/03 12:53:47;;;;;;;35.15;13.63;;;;;;;;;;5045439;28;20529;-60
2021/11/03 12:56:14;;;;;;;30.77;13.25;;;;;;;;;;5041273;28;20033;-60
2021/11/03 12:58:42;;;;;;;30.85;12.45;;;;;;;;;;5045494;28;20049;-59
2021/11/03 13:01:18;;;;;;;32.33;12.88;;;;;;;;;;5041685;28;20114;-59
2021/11/03 13:03:50;;;;;;;30.70;13.32;;;;;;;;;;5045351;28;20052;-59
2021/11/03 13:06:17;;;;;;;33.25;14.27;;;;;;;;;;5042001;28;20045;-59
2021/11/03 13:08:44;;;;;;;27.58;13.18;;;;;;;;;;5046276;28;20040;-59
2021/11/03 13:11:16;;;;;;;29.70;12.85;;;;;;;;;;5042397;28;20040;-59
2021/11/03 13:13:45;;;;;;;31.75;13.65;;;;;;;;;;5064902;28;20057;-59
2021/11/03 13:16:16;;;;;;;32.75;14.77;;;;;;;;;;5058428;28;20053;-58
2021/11/03 13:18:44;;;;;;;32.45;14.02;;;;;;;;;;5043508;28;20041;-59
2021/11/03 13:21:21;;;;;;;29.50;13.30;;;;;;;;;;5041658;28;20040;-59
2021/11/03 13:23:49;;;;;;;28.00;12.80;;;;;;;;;;5036176;28;20120;-58
2021/11/03 13:26:21;;;;;;;32.43;13.63;;;;;;;;;;5059959;28;20051;-59
2021/11/03 13:28:48;;;;;;;27.90;13.55;;;;;;;;;;5044003;28;20274;-59
2021/11/03 13:31:21;;;;;;;30.55;13.15;;;;;;;;;;5046636;28;20056;-59
2021/11/03 13:33:58;;;;;;;26.50;12.70;;;;;;;;;;5060009;28;20044;-59
2021/11/03 13:36:28;;;;;;;27.40;12.95;;;;;;;;;;5062700;28;20060;-60
2021/11/03 13:38:56;;;;;;;29.88;13.27;;;;;;;;;;5026079;28;20049;-59
2021/11/03 13:41:25;;;;;;;29.70;13.25;;;;;;;;;;5026955;28;20115;-60
2021/11/03 13:44:11;;;;;;;32.03;14.55;;;;;;;;;;5019891;28;20045;-58
2021/11/03 13:46:37;;;;;;;37.85;15.00;;;;;;;;;;5023564;28;20056;-59
2021/11/03 13:49:11;;;;;;;33.10;14.80;;;;;;;;;;5034591;28;20041;-59
2021/11/03 13:51:43;;;;;;;31.20;13.82;;;;;;;;;;5042589;28;20069;-58
2021/11/03 13:54:24;;;;;;;35.63;15.40;;;;;;;;;;5023805;28;20523;-59
2021/11/03 13:56:53;;;;;;;33.90;14.00;;;;;;;;;;5022013;28;20077;-59
2021/11/03 13:59:23;;;;;;;38.28;15.55;;;;;;;;;;5019443;28;20033;-58
2021/11/03 14:02:07;;;;;;;34.60;14.85;;;;;;;;;;5021831;28;20068;-59
2021/11/03 14:04:41;;;;;;;31.00;14.35;;;;;;;;;;5019657;28;20037;-59
2021/11/03 14:07:17;;;;;;;32.60;12.63;;;;;;;;;;5042953;28;20048;-59
2021/11/03 14:09:44;;;;;;;29.77;13.50;;;;;;;;;;5051867;28;20041;-59
2021/11/03 14:12:11;;;;;;;35.63;14.25;;;;;;;;;;5039929;28;20052;-59
2021/11/03 14:14:38;;;;;;;26.35;12.20;;;;;;;;;;5036820;28;20139;-59
2021/11/03 14:17:08;;;;;;;28.23;13.23;;;;;;;;;;5041606;28;20057;-59
2021/11/03 14:19:37;;;;;;;27.05;12.93;;;;;;;;;;5037092;28;20061;-59
2021/11/03 14:22:06;;;;;;;28.55;12.63;;;;;;;;;;5040488;28;20045;-60
2021/11/03 14:24:34;;;;;;;31.17;13.43;;;;;;;;;;5026477;28;20041;-60
2021/11/03 14:27:01;;;;;;;44.58;16.45;;;;;;;;;;5041392;28;20048;-59
2021/11/03 14:29:27;;;;;;;41.25;17.70;;;;;;;;;;5037396;28;20099;-59
2021/11/03 14:31:54;;;;;;;43.47;18.00;;;;;;;;;;5041436;28;20052;-58
2021/11/03 14:34:22;;;;;;;43.97;17.35;;;;;;;;;;5039360;28;20099;-59
2021/11/03 14:36:49;;;;;;;40.20;16.90;;;;;;;;;;5041060;28;20240;-59
2021/11/03 14:39:17;;;;;;;39.33;16.13;;;;;;;;;;5037377;28;20041;-59
2021/11/03 14:41:48;;;;;;;49.50;17.40;;;;;;;;;;5021031;28;20050;-60
2021/11/03 14:44:15;;;;;;;39.40;16.60;;;;;;;;;;5020588;28;20056;-59